Time;durP1;ratioP1;P1;durP2;ratioP2;P2;SDS_P1;SDS_P2;PMS_P1;PMS_P2;Temp;Humidity;BMP_temperature;BMP_pressure;BME280_temperature;BME280_humidity;BME280_pressure;Samples;Min_cycle;Max_cycle;Signal;HPM_P1;HPM_P2
2022/12/01 00:01:39;;;;;;;21.52;11.98;;;6.60;66.00;;;;;;5058563;28;20036;-70
2022/12/01 00:04:12;;;;;;;17.83;11.00;;;6.60;66.00;;;;;;5058611;28;20024;-70
2022/12/01 00:06:40;;;;;;;17.48;10.75;;;6.60;66.00;;;;;;5076151;28;20020;-70
2022/12/01 00:11:56;;;;;;;20.58;11.32;;;6.60;65.90;;;;;;5075861;28;20111;-70
2022/12/01 00:14:25;;;;;;;27.13;14.07;;;6.50;66.00;;;;;;5058016;28;20036;-70
2022/12/01 00:16:55;;;;;;;23.85;14.18;;;6.50;66.10;;;;;;5076220;28;20032;-70
2022/12/01 00:19:25;;;;;;;23.60;13.57;;;6.50;66.30;;;;;;5075916;28;20031;-70
2022/12/01 00:21:53;;;;;;;19.00;12.18;;;6.40;66.50;;;;;;5058010;28;20119;-70
2022/12/01 00:24:22;;;;;;;23.33;13.15;;;6.40;66.60;;;;;;5075952;28;20020;-70
2022/12/01 00:26:48;;;;;;;22.30;11.85;;;6.40;66.70;;;;;;5075690;28;20028;-70
2022/12/01 00:29:14;;;;;;;19.60;10.65;;;6.40;66.70;;;;;;5076292;28;20017;-70
2022/12/01 00:31:40;;;;;;;20.00;11.57;;;6.40;66.80;;;;;;5075928;28;20090;-70
2022/12/01 00:34:10;;;;;;;17.40;10.38;;;6.40;66.90;;;;;;5057599;28;20082;-70
2022/12/01 00:36:40;;;;;;;17.60;9.52;;;6.40;67.00;;;;;;5075894;28;20376;-71
2022/12/01 00:39:06;;;;;;;16.15;9.95;;;6.40;67.10;;;;;;5075810;28;20089;-70
2022/12/01 00:41:35;;;;;;;18.15;9.90;;;6.40;67.20;;;;;;5075415;28;20048;-70
2022/12/01 00:44:03;;;;;;;16.05;9.68;;;6.40;67.30;;;;;;5075665;28;20081;-70
2022/12/01 00:46:29;;;;;;;20.50;9.57;;;6.50;67.40;;;;;;5075637;28;20031;-70
2022/12/01 00:48:55;;;;;;;16.73;9.55;;;6.50;67.30;;;;;;5075451;28;20029;-70
2022/12/01 00:51:21;;;;;;;17.08;9.20;;;6.50;67.20;;;;;;5057291;28;20028;-70
2022/12/01 00:53:47;;;;;;;14.98;9.20;;;6.50;67.10;;;;;;5075191;28;20024;-70
2022/12/01 00:56:13;;;;;;;14.93;8.90;;;6.50;67.00;;;;;;5075432;28;20108;-70
2022/12/01 00:58:39;;;;;;;17.52;9.60;;;6.50;66.90;;;;;;5075324;28;20032;-70
2022/12/01 01:01:08;;;;;;;15.35;9.63;;;6.50;66.80;;;;;;5056830;28;20044;-70
2022/12/01 01:03:33;;;;;;;16.10;9.65;;;6.50;66.70;;;;;;5075026;28;20058;-70
2022/12/01 01:06:08;;;;;;;17.73;10.27;;;6.50;66.60;;;;;;5074970;28;20380;-70
2022/12/01 01:08:37;;;;;;;15.95;9.85;;;6.40;66.50;;;;;;5074976;28;20021;-70
2022/12/01 01:11:04;;;;;;;15.38;9.38;;;6.40;66.50;;;;;;5057187;28;20384;-70
2022/12/01 01:13:31;;;;;;;22.48;9.45;;;6.40;66.50;;;;;;5074841;28;20020;-70
2022/12/01 01:15:59;;;;;;;14.35;8.20;;;6.40;66.40;;;;;;5056724;28;20032;-70
2022/12/01 01:18:26;;;;;;;15.77;8.80;;;6.40;66.40;;;;;;5074696;28;20069;-70
2022/12/01 01:21:01;;;;;;;20.35;10.93;;;6.30;66.40;;;;;;5074870;28;20032;-71
2022/12/01 01:23:27;;;;;;;16.90;10.05;;;6.30;66.50;;;;;;5074673;28;20372;-71
2022/12/01 01:25:59;;;;;;;17.90;11.00;;;6.30;66.60;;;;;;5056907;28;20020;-70
2022/12/01 01:28:25;;;;;;;17.83;9.80;;;6.20;66.70;;;;;;5074860;28;20028;-70
2022/12/01 01:30:50;;;;;;;19.63;10.30;;;6.20;66.70;;;;;;5074464;28;20112;-70
2022/12/01 01:33:18;;;;;;;19.45;12.07;;;6.20;66.80;;;;;;5074495;28;20031;-70
2022/12/01 01:35:44;;;;;;;23.00;12.77;;;6.20;66.90;;;;;;5074590;28;20151;-71
2022/12/01 01:38:10;;;;;;;17.05;10.07;;;6.10;66.90;;;;;;5074491;28;20489;-70
2022/12/01 01:40:43;;;;;;;18.88;10.90;;;6.10;67.00;;;;;;5056411;28;20119;-70
2022/12/01 01:43:15;;;;;;;16.02;9.45;;;6.10;67.00;;;;;;5074302;28;20028;-70
2022/12/01 01:45:41;;;;;;;15.70;9.35;;;6.10;67.00;;;;;;5056340;28;20479;-70
2022/12/01 01:48:08;;;;;;;18.83;11.13;;;6.00;67.00;;;;;;5074329;28;20024;-70
2022/12/01 01:50:34;;;;;;;15.95;9.80;;;6.00;67.10;;;;;;5056293;28;20376;-71
2022/12/01 01:53:05;;;;;;;16.25;10.25;;;6.00;67.30;;;;;;5074263;28;20021;-70
2022/12/01 01:55:33;;;;;;;17.85;11.32;;;6.00;67.40;;;;;;5056298;28;20468;-70
2022/12/01 01:58:03;;;;;;;19.92;11.93;;;6.00;67.40;;;;;;5074437;28;20016;-70
2022/12/01 02:00:29;;;;;;;15.23;9.85;;;6.00;67.50;;;;;;5055457;28;20060;-70
2022/12/01 02:02:56;;;;;;;17.55;10.27;;;6.00;67.50;;;;;;5072704;28;20039;-70
2022/12/01 02:05:29;;;;;;;17.95;10.82;;;6.00;67.60;;;;;;5073181;28;20024;-70
2022/12/01 02:07:57;;;;;;;18.35;10.88;;;6.00;67.70;;;;;;5055930;28;20028;-71
2022/12/01 02:10:39;;;;;;;20.52;11.50;;;6.00;67.70;;;;;;5073820;28;20086;-71
2022/12/01 02:13:23;;;;;;;19.58;10.55;;;6.00;67.80;;;;;;5055709;28;20021;-70
2022/12/01 02:16:27;;;;;;;21.15;9.52;;;6.00;67.70;;;;;;5055885;28;20111;-70
2022/12/01 02:19:17;;;;;;;16.00;9.93;;;6.00;67.80;;;;;;5038062;28;20067;-70
2022/12/01 02:22:17;;;;;;;17.83;9.55;;;6.00;67.70;;;;;;5073622;28;20115;-70
2022/12/01 02:25:04;;;;;;;18.88;11.30;;;6.00;67.60;;;;;;5073423;28;20033;-70
2022/12/01 02:27:44;;;;;;;20.35;13.30;;;6.00;67.60;;;;;;5073346;28;20039;-71
2022/12/01 02:30:49;;;;;;;19.98;12.40;;;6.00;67.60;;;;;;5073539;28;20097;-70
2022/12/01 02:33:17;;;;;;;21.13;11.82;;;6.00;67.70;;;;;;5055293;28;20045;-70
2022/12/01 02:36:07;;;;;;;18.73;11.18;;;6.00;67.60;;;;;;5073536;28;20029;-70
2022/12/01 02:38:50;;;;;;;14.05;9.13;;;6.00;67.60;;;;;;5055660;28;20119;-70
2022/12/01 02:41:32;;;;;;;17.37;10.23;;;6.00;67.60;;;;;;5055467;28;20040;-70
2022/12/01 02:44:25;;;;;;;22.85;12.27;;;6.00;67.60;;;;;;5055481;28;20056;-70
2022/12/01 02:47:09;;;;;;;19.67;11.02;;;6.00;67.70;;;;;;5073104;28;20027;-70
2022/12/01 02:49:42;;;;;;;19.23;11.55;;;6.00;67.80;;;;;;5073185;28;20074;-70
2022/12/01 02:52:11;;;;;;;20.58;12.02;;;6.00;67.80;;;;;;5055318;28;20492;-70
2022/12/01 02:54:38;;;;;;;19.75;11.95;;;6.00;67.70;;;;;;5073585;28;20025;-70
2022/12/01 02:57:04;;;;;;;20.35;12.52;;;6.00;67.70;;;;;;5072972;28;20456;-71
2022/12/01 02:59:36;;;;;;;20.65;11.93;;;6.00;67.70;;;;;;5072941;28;20048;-70
2022/12/01 03:02:08;;;;;;;21.00;11.30;;;6.00;67.60;;;;;;5073196;28;20036;-70
2022/12/01 03:05:02;;;;;;;20.45;12.00;;;5.90;67.50;;;;;;5055009;28;20036;-70
2022/12/01 03:07:52;;;;;;;19.27;11.27;;;5.90;67.50;;;;;;5073056;28;20029;-70
2022/12/01 03:10:25;;;;;;;20.65;12.18;;;5.90;67.40;;;;;;5053158;28;20035;-71
2022/12/01 03:13:28;;;;;;;29.20;15.60;;;5.90;67.40;;;;;;5053990;28;20025;-70
2022/12/01 03:16:10;;;;;;;31.70;17.88;;;5.80;67.40;;;;;;5057178;28;20021;-71
2022/12/01 03:18:49;;;;;;;29.85;17.48;;;5.80;67.40;;;;;;5057141;28;20032;-70
2022/12/01 03:21:35;;;;;;;32.58;18.05;;;5.70;67.40;;;;;;5057030;28;20037;-70
2022/12/01 03:24:11;;;;;;;28.00;17.08;;;5.70;67.50;;;;;;5056998;28;20028;-71
2022/12/01 03:26:40;;;;;;;27.67;15.43;;;5.70;67.50;;;;;;5056658;28;20461;-70
2022/12/01 03:29:29;;;;;;;24.80;14.70;;;5.70;67.70;;;;;;5038696;28;20084;-70
2022/12/01 03:32:04;;;;;;;27.80;16.65;;;5.70;67.70;;;;;;5038770;28;20040;-70
2022/12/01 03:34:48;;;;;;;31.20;18.17;;;5.70;67.70;;;;;;5071816;28;20028;-70
2022/12/01 03:37:26;;;;;;;30.60;17.98;;;5.70;67.80;;;;;;5076775;28;20025;-70
2022/12/01 03:39:56;;;;;;;32.80;19.15;;;5.60;67.70;;;;;;5076374;28;20036;-70
2022/12/01 03:42:43;;;;;;;28.92;16.50;;;5.60;67.70;;;;;;5076615;28;20119;-70
2022/12/01 03:45:18;;;;;;;26.02;14.35;;;5.60;67.80;;;;;;5076600;28;20035;-70
2022/12/01 03:47:45;;;;;;;27.15;14.73;;;5.60;67.80;;;;;;5076292;28;20028;-70
2022/12/01 03:50:12;;;;;;;32.65;14.35;;;5.50;67.80;;;;;;5076487;28;20047;-70
2022/12/01 03:52:56;;;;;;;24.05;12.77;;;5.50;67.90;;;;;;5076387;28;20066;-70
2022/12/01 03:55:29;;;;;;;21.85;12.02;;;5.50;68.00;;;;;;5076437;28;20055;-70
2022/12/01 03:58:07;;;;;;;25.27;13.05;;;5.50;68.00;;;;;;5076266;28;20035;-70
2022/12/01 04:00:34;;;;;;;24.65;13.93;;;5.50;68.00;;;;;;5075825;28;20392;-70
2022/12/01 04:03:03;;;;;;;35.03;17.25;;;5.50;68.10;;;;;;5075969;28;20077;-70
2022/12/01 04:05:32;;;;;;;29.20;16.42;;;5.50;68.20;;;;;;5076268;28;20048;-70
2022/12/01 04:07:58;;;;;;;26.55;15.13;;;5.50;68.20;;;;;;5075994;28;20024;-70
2022/12/01 04:10:26;;;;;;;28.35;16.05;;;5.50;68.30;;;;;;5076224;28;20033;-70
2022/12/01 04:12:58;;;;;;;28.90;16.25;;;5.50;68.40;;;;;;5075905;28;20033;-70
2022/12/01 04:15:25;;;;;;;26.40;14.05;;;5.50;68.40;;;;;;5076044;28;20486;-70
2022/12/01 04:17:52;;;;;;;28.05;15.20;;;5.50;68.40;;;;;;5075792;28;20032;-70
2022/12/01 04:20:20;;;;;;;26.63;14.63;;;5.50;68.50;;;;;;5075685;28;20110;-70
2022/12/01 04:22:49;;;;;;;27.90;14.88;;;5.50;68.60;;;;;;5075971;28;20016;-70
2022/12/01 04:25:20;;;;;;;30.13;15.52;;;5.50;68.70;;;;;;5057170;28;20024;-70
2022/12/01 04:27:50;;;;;;;29.33;15.77;;;5.60;69.00;;;;;;5058102;28;20024;-70
2022/12/01 04:30:19;;;;;;;27.27;15.27;;;5.60;69.10;;;;;;5075853;28;20031;-70
2022/12/01 04:32:49;;;;;;;35.42;18.90;;;5.70;69.30;;;;;;5075691;28;20035;-70
2022/12/01 04:35:18;;;;;;;34.28;18.88;;;5.70;69.40;;;;;;5038056;28;20064;-70
2022/12/01 04:37:43;;;;;;;38.65;19.35;;;5.80;69.50;;;;;;5038005;28;20032;-70
2022/12/01 04:40:12;;;;;;;41.03;19.98;;;5.80;69.40;;;;;;5055296;28;20033;-70
2022/12/01 04:42:41;;;;;;;32.17;17.45;;;5.90;69.40;;;;;;5055330;28;20526;-70
2022/12/01 04:45:07;;;;;;;28.88;16.27;;;5.90;69.20;;;;;;5037359;28;20032;-70
2022/12/01 04:47:33;;;;;;;29.75;15.38;;;6.00;69.10;;;;;;5037541;28;20052;-70
2022/12/01 04:49:59;;;;;;;31.20;16.98;;;6.00;68.90;;;;;;5037238;28;20029;-70
2022/12/01 04:52:25;;;;;;;29.67;16.02;;;6.00;68.90;;;;;;5055413;28;20470;-70
2022/12/01 04:54:53;;;;;;;28.70;15.90;;;6.00;68.90;;;;;;5037407;28;20028;-71
2022/12/01 04:57:24;;;;;;;36.10;18.63;;;6.10;68.90;;;;;;5069605;28;20043;-70
2022/12/01 04:59:52;;;;;;;30.58;17.05;;;6.10;68.80;;;;;;5056972;28;20373;-70
2022/12/01 05:02:18;;;;;;;31.80;16.77;;;6.10;68.70;;;;;;5074979;28;20028;-70
2022/12/01 05:04:46;;;;;;;31.05;17.08;;;6.10;68.50;;;;;;5056800;28;20052;-70
2022/12/01 05:07:17;;;;;;;30.10;16.20;;;6.10;68.40;;;;;;5074797;28;20032;-71
2022/12/01 05:09:43;;;;;;;39.53;20.00;;;6.10;69.10;;;;;;5074575;28;20380;-70
2022/12/01 05:12:15;;;;;;;35.95;19.25;;;6.00;68.20;;;;;;5057068;28;20025;-70
2022/12/01 05:14:41;;;;;;;34.13;18.23;;;6.00;68.20;;;;;;5056995;28;20025;-70
2022/12/01 05:17:09;;;;;;;32.80;16.80;;;6.00;68.30;;;;;;5075158;28;20028;-70
2022/12/01 05:22:19;;;;;;;;;;;6.00;68.40;;;;;;5075008;28;20040;-70
2022/12/01 05:24:50;;;;;;;38.25;20.45;;;6.00;68.60;;;;;;5074829;28;20359;-70
2022/12/01 05:27:19;;;;;;;41.75;21.50;;;6.00;68.80;;;;;;5074439;28;20025;-70
2022/12/01 05:29:47;;;;;;;45.88;23.67;;;6.10;69.20;;;;;;5074585;28;20082;-70
2022/12/01 05:32:15;;;;;;;49.83;25.58;;;6.10;69.50;;;;;;5056608;28;20032;-71
2022/12/01 05:34:44;;;;;;;42.30;21.23;;;6.20;69.70;;;;;;5073921;28;20036;-71
2022/12/01 05:37:09;;;;;;;40.58;20.25;;;6.30;70.50;;;;;;5074218;28;20116;-70
2022/12/01 05:39:39;;;;;;;36.08;17.63;;;6.40;69.80;;;;;;5074263;28;20099;-70
2022/12/01 05:42:07;;;;;;;31.23;16.00;;;6.40;69.70;;;;;;5074402;28;20060;-70
2022/12/01 05:44:36;;;;;;;30.25;15.45;;;6.50;69.70;;;;;;5056054;28;20039;-70
2022/12/01 05:47:04;;;;;;;32.25;15.82;;;6.60;69.60;;;;;;5073955;28;20081;-70
2022/12/01 05:49:30;;;;;;;28.42;15.30;;;6.70;69.50;;;;;;5074328;28;20051;-70
2022/12/01 05:51:55;;;;;;;26.80;14.07;;;6.80;69.50;;;;;;5074224;28;20448;-70
2022/12/01 05:54:21;;;;;;;29.25;15.55;;;6.80;69.30;;;;;;5056188;28;20029;-70
2022/12/01 05:56:47;;;;;;;28.25;15.23;;;6.90;69.30;;;;;;5074085;28;20025;-71
2022/12/01 05:59:13;;;;;;;26.05;13.52;;;7.00;69.20;;;;;;5073660;28;20028;-70
2022/12/01 06:01:39;;;;;;;26.77;14.40;;;7.00;69.00;;;;;;5056070;28;20472;-70
2022/12/01 06:04:07;;;;;;;31.17;16.10;;;7.10;69.00;;;;;;5073816;28;20099;-70
2022/12/01 06:06:33;;;;;;;33.70;16.98;;;7.10;68.80;;;;;;5073483;28;20056;-71
2022/12/01 06:08:59;;;;;;;36.10;18.45;;;7.20;68.50;;;;;;5073929;28;20066;-71
2022/12/01 06:11:24;;;;;;;41.28;19.92;;;7.20;68.20;;;;;;5055921;28;20586;-70
2022/12/01 06:13:50;;;;;;;47.13;22.48;;;7.20;67.90;;;;;;5055547;28;20031;-70
2022/12/01 06:16:16;;;;;;;44.35;22.00;;;7.20;67.70;;;;;;5055728;28;20384;-70
2022/12/01 06:18:42;;;;;;;50.55;25.00;;;7.30;67.60;;;;;;5055852;28;20125;-70
2022/12/01 06:21:08;;;;;;;51.78;24.50;;;7.30;67.40;;;;;;5073655;28;20532;-70
2022/12/01 06:23:37;;;;;;;52.70;24.73;;;7.30;67.20;;;;;;5073375;28;20029;-70
2022/12/01 06:26:03;;;;;;;57.72;26.45;;;7.30;67.10;;;;;;5055378;28;20021;-70
2022/12/01 06:28:29;;;;;;;49.42;23.50;;;7.20;66.90;;;;;;5073912;28;20033;-70
2022/12/01 06:30:57;;;;;;;47.25;23.83;;;7.20;66.80;;;;;;5073232;28;20028;-71
2022/12/01 06:33:25;;;;;;;44.00;22.63;;;7.20;66.70;;;;;;5055304;28;20078;-71
2022/12/01 06:36:03;;;;;;;45.55;22.80;;;7.20;66.70;;;;;;5073568;28;20032;-71
2022/12/01 06:38:31;;;;;;;46.92;21.67;;;7.20;66.60;;;;;;5073203;28;20074;-71
2022/12/01 06:40:57;;;;;;;49.22;22.42;;;7.20;66.70;;;;;;5073418;28;20757;-71
2022/12/01 06:43:22;;;;;;;48.63;24.35;;;7.20;66.80;;;;;;5073474;28;20032;-71
2022/12/01 06:45:48;;;;;;;46.60;24.95;;;7.20;66.80;;;;;;5072815;28;20028;-72
2022/12/01 06:48:14;;;;;;;49.05;23.13;;;7.20;66.80;;;;;;5073074;28;20063;-71
2022/12/01 06:50:40;;;;;;;45.83;23.02;;;7.20;66.80;;;;;;5073368;28;20060;-71
2022/12/01 06:53:06;;;;;;;49.30;23.73;;;7.20;66.90;;;;;;5053145;28;20353;-71
2022/12/01 06:55:34;;;;;;;49.00;24.60;;;7.20;67.00;;;;;;5072918;28;20045;-71
2022/12/01 06:58:03;;;;;;;53.15;26.15;;;7.30;67.10;;;;;;5055473;28;20024;-73
2022/12/01 07:00:29;;;;;;;57.08;27.85;;;7.30;67.10;;;;;;5055009;28;20048;-71
2022/12/01 07:02:55;;;;;;;57.00;27.17;;;7.30;66.90;;;;;;5065008;28;20377;-71
2022/12/01 07:05:22;;;;;;;59.05;29.42;;;7.30;66.90;;;;;;5071560;28;20033;-71
2022/12/01 07:07:48;;;;;;;57.00;28.13;;;7.40;66.90;;;;;;5072805;28;20024;-71
2022/12/01 07:10:23;;;;;;;62.63;28.40;;;7.40;66.90;;;;;;5055201;28;20111;-71
2022/12/01 07:12:48;;;;;;;59.58;29.55;;;7.50;66.90;;;;;;5055260;28;20024;-71
2022/12/01 07:15:17;;;;;;;61.53;29.80;;;7.50;66.80;;;;;;5073291;28;20525;-71
2022/12/01 07:17:43;;;;;;;61.33;27.90;;;7.60;66.80;;;;;;5065113;28;20090;-71
2022/12/01 07:20:09;;;;;;;56.65;27.33;;;7.60;66.70;;;;;;5035306;28;20524;-71
2022/12/01 07:22:35;;;;;;;63.38;30.38;;;7.70;66.70;;;;;;5053204;28;20064;-71
2022/12/01 07:25:04;;;;;;;59.92;30.13;;;7.70;66.40;;;;;;5053119;28;20021;-71
2022/12/01 07:27:31;;;;;;;61.88;29.67;;;7.80;66.30;;;;;;5053387;28;20032;-71
2022/12/01 07:29:57;;;;;;;63.83;32.45;;;7.80;66.10;;;;;;5035193;28;20415;-71
2022/12/01 07:32:25;;;;;;;64.88;32.35;;;7.90;65.90;;;;;;5035179;28;20338;-71
2022/12/01 07:34:51;;;;;;;61.97;31.38;;;8.00;65.80;;;;;;5049870;28;20032;-71
2022/12/01 07:37:20;;;;;;;73.82;31.23;;;8.00;65.90;;;;;;5069212;28;20457;-71
2022/12/01 07:39:46;;;;;;;61.97;29.35;;;8.10;65.80;;;;;;5053031;28;20025;-71
2022/12/01 07:42:11;;;;;;;65.47;32.28;;;8.20;65.70;;;;;;5034904;28;20033;-70
2022/12/01 07:44:42;;;;;;;72.00;33.50;;;8.20;65.20;;;;;;5035054;28;20487;-70
2022/12/01 07:47:14;;;;;;;70.88;34.28;;;8.30;65.10;;;;;;5035080;28;20028;-70
2022/12/01 07:49:40;;;;;;;72.57;35.53;;;8.30;65.00;;;;;;5034997;28;20441;-71
2022/12/01 07:52:05;;;;;;;64.90;33.20;;;8.40;64.80;;;;;;5035001;28;20033;-71
2022/12/01 07:54:34;;;;;;;70.03;34.60;;;8.50;64.60;;;;;;5034983;28;20017;-70
2022/12/01 07:57:02;;;;;;;66.72;32.25;;;8.50;64.40;;;;;;5052571;28;20033;-70
2022/12/01 07:59:28;;;;;;;60.80;30.20;;;8.60;64.20;;;;;;5061915;28;20064;-71
2022/12/01 08:01:57;;;;;;;60.30;28.88;;;8.60;64.30;;;;;;5054321;28;20433;-70
2022/12/01 08:04:26;;;;;;;64.38;31.00;;;8.70;64.30;;;;;;5075094;28;20491;-70
2022/12/01 08:06:51;;;;;;;65.13;31.25;;;8.80;64.30;;;;;;5076380;28;20032;-70
2022/12/01 08:09:23;;;;;;;62.53;32.13;;;8.80;64.00;;;;;;5076373;28;20027;-70
2022/12/01 08:11:51;;;;;;;62.67;31.30;;;8.90;63.90;;;;;;5073944;28;20028;-70
2022/12/01 08:14:17;;;;;;;71.03;33.67;;;8.90;63.80;;;;;;5076255;28;20029;-71
2022/12/01 08:16:43;;;;;;;68.82;34.47;;;9.00;63.40;;;;;;5063130;28;20360;-71
2022/12/01 08:19:12;;;;;;;70.88;34.85;;;9.00;63.50;;;;;;5075453;28;20028;-71
2022/12/01 08:21:40;;;;;;;65.50;34.45;;;9.10;63.30;;;;;;5068042;28;20037;-70
2022/12/01 08:24:11;;;;;;;65.70;32.70;;;9.10;63.20;;;;;;5058983;28;20100;-70
2022/12/01 08:26:41;;;;;;;68.07;32.70;;;9.20;63.00;;;;;;5058744;28;20031;-71
2022/12/01 08:29:10;;;;;;;69.80;33.70;;;9.30;62.70;;;;;;5073830;28;20095;-70
2022/12/01 08:31:36;;;;;;;61.80;30.80;;;9.30;63.00;;;;;;5057979;28;20127;-71
2022/12/01 08:34:06;;;;;;;57.88;29.08;;;9.30;62.70;;;;;;5075229;28;20484;-71
2022/12/01 08:36:33;;;;;;;56.90;27.70;;;9.30;62.10;;;;;;5075537;28;20031;-71
2022/12/01 08:38:59;;;;;;;57.38;28.00;;;9.30;61.60;;;;;;5070751;28;20024;-71
2022/12/01 08:41:30;;;;;;;56.45;27.40;;;9.30;61.30;;;;;;5075332;28;20036;-71
2022/12/01 08:43:58;;;;;;;56.60;27.92;;;9.30;61.50;;;;;;5075616;28;20349;-71
2022/12/01 08:46:25;;;;;;;53.08;25.98;;;9.20;61.60;;;;;;5063360;28;20024;-71
2022/12/01 08:48:53;;;;;;;57.60;28.00;;;9.10;61.80;;;;;;5049320;28;20111;-71
2022/12/01 08:51:22;;;;;;;60.60;28.88;;;9.10;62.10;;;;;;5055687;28;20032;-71
2022/12/01 08:53:49;;;;;;;58.08;28.48;;;9.00;62.20;;;;;;5066704;28;20025;-71
2022/12/01 08:56:21;;;;;;;64.97;30.08;;;9.00;62.50;;;;;;5075563;28;20032;-71
2022/12/01 08:58:50;;;;;;;70.32;30.80;;;9.00;62.80;;;;;;5057432;28;20395;-71
2022/12/01 09:01:19;;;;;;;58.90;29.23;;;9.00;62.80;;;;;;5074718;28;20049;-71
2022/12/01 09:03:45;;;;;;;54.40;27.52;;;9.00;63.20;;;;;;5074139;28;20020;-71
2022/12/01 09:06:14;;;;;;;63.33;30.42;;;9.00;63.80;;;;;;5074981;28;20031;-71
2022/12/01 09:08:43;;;;;;;53.22;27.60;;;9.00;64.10;;;;;;5075144;28;20021;-71
2022/12/01 09:11:12;;;;;;;51.03;26.70;;;9.10;64.30;;;;;;5074535;28;20060;-71
2022/12/01 09:13:42;;;;;;;50.03;26.33;;;9.20;64.40;;;;;;5057055;28;20418;-71
2022/12/01 09:16:14;;;;;;;46.78;25.08;;;9.30;64.50;;;;;;5075015;28;20029;-71
2022/12/01 09:18:44;;;;;;;53.30;26.92;;;9.50;64.60;;;;;;5067056;28;20029;-71
2022/12/01 09:21:13;;;;;;;56.97;26.58;;;9.60;64.20;;;;;;5054497;28;20102;-71
2022/12/01 09:23:42;;;;;;;49.83;24.98;;;9.70;63.80;;;;;;5056411;28;20372;-70
2022/12/01 09:26:08;;;;;;;50.28;26.02;;;9.90;63.80;;;;;;5068837;28;20048;-70
2022/12/01 09:28:37;;;;;;;49.58;26.25;;;10.10;63.70;;;;;;5063055;28;20029;-71
2022/12/01 09:31:11;;;;;;;52.88;25.40;;;10.20;63.40;;;;;;5071436;28;20075;-72
2022/12/01 09:33:43;;;;;;;52.35;26.30;;;10.40;63.00;;;;;;5053364;28;20472;-72
2022/12/01 09:36:10;;;;;;;53.17;27.27;;;10.50;62.70;;;;;;5068807;28;20123;-72
2022/12/01 09:38:47;;;;;;;51.58;26.10;;;10.70;62.10;;;;;;5074929;28;20043;-71
2022/12/01 09:41:31;;;;;;;48.45;25.63;;;10.80;61.60;;;;;;5056098;28;20040;-71
2022/12/01 09:44:13;;;;;;;47.00;23.42;;;10.90;61.30;;;;;;5074543;28;20460;-72
2022/12/01 09:47:07;;;;;;;45.60;22.55;;;11.00;61.50;;;;;;5074591;28;20382;-72
2022/12/01 09:49:54;;;;;;;51.92;25.73;;;11.10;61.40;;;;;;5054490;28;20044;-72
2022/12/01 09:52:22;;;;;;;48.20;24.35;;;11.10;60.60;;;;;;5037483;28;20039;-72
2022/12/01 09:54:53;;;;;;;44.30;23.73;;;11.20;60.40;;;;;;5074009;28;20028;-72
2022/12/01 09:57:39;;;;;;;47.33;25.13;;;11.20;60.50;;;;;;5074060;28;20037;-72
2022/12/01 10:00:16;;;;;;;47.22;24.67;;;11.30;60.40;;;;;;5073847;28;20056;-72
2022/12/01 10:02:48;;;;;;;56.10;27.33;;;11.40;60.80;;;;;;5073445;28;20039;-72
2022/12/01 10:05:18;;;;;;;53.38;27.27;;;11.50;60.10;;;;;;5054190;28;20490;-72
2022/12/01 10:07:56;;;;;;;47.05;25.83;;;11.50;59.80;;;;;;5070726;28;20047;-72
2022/12/01 10:11:01;;;;;;;57.85;27.83;;;11.50;59.70;;;;;;5070918;28;20030;-72
2022/12/01 10:13:28;;;;;;;58.95;30.48;;;11.50;59.70;;;;;;5038552;28;20047;-72
2022/12/01 10:16:23;;;;;;;58.92;29.35;;;11.50;59.50;;;;;;5070339;28;20082;-72
2022/12/01 10:19:02;;;;;;;56.33;29.30;;;11.50;59.50;;;;;;5054560;28;20025;-72
2022/12/01 10:21:29;;;;;;;63.53;33.00;;;11.50;59.60;;;;;;5071104;28;20040;-72
2022/12/01 10:24:13;;;;;;;57.90;29.50;;;11.50;59.30;;;;;;5071672;28;20118;-72
2022/12/01 10:27:10;;;;;;;62.70;32.95;;;11.50;59.40;;;;;;5071702;28;20094;-72
2022/12/01 10:29:57;;;;;;;65.38;32.28;;;11.50;59.20;;;;;;5054418;28;20052;-72
2022/12/01 10:32:37;;;;;;;58.22;30.45;;;11.40;58.90;;;;;;5069748;28;20056;-72
2022/12/01 10:35:03;;;;;;;64.32;32.05;;;11.40;59.00;;;;;;5071404;28;20436;-72
2022/12/01 10:37:34;;;;;;;61.25;30.08;;;11.40;59.00;;;;;;5068379;28;20115;-72
2022/12/01 10:40:10;;;;;;;61.40;30.63;;;11.40;59.20;;;;;;5068345;28;20376;-72
2022/12/01 10:42:44;;;;;;;68.13;33.30;;;11.40;59.20;;;;;;5071796;28;20070;-71
2022/12/01 10:45:22;;;;;;;62.90;31.92;;;11.40;59.50;;;;;;5070040;28;20048;-72
2022/12/01 10:48:20;;;;;;;66.15;31.33;;;11.50;59.70;;;;;;5071518;28;20031;-72
2022/12/01 10:50:53;;;;;;;62.33;31.55;;;11.50;59.30;;;;;;5071302;28;20101;-72
2022/12/01 10:53:22;;;;;;;63.20;31.02;;;11.50;59.00;;;;;;5069818;28;20047;-72
2022/12/01 10:56:17;;;;;;;67.60;33.17;;;11.60;59.10;;;;;;5054342;28;20052;-72
2022/12/01 10:58:49;;;;;;;58.40;30.60;;;11.60;59.00;;;;;;5063727;28;20040;-72
2022/12/01 11:01:36;;;;;;;59.60;30.13;;;11.60;59.10;;;;;;5071099;28;20472;-72
2022/12/01 11:04:24;;;;;;;57.83;29.83;;;11.60;59.10;;;;;;5066845;28;20032;-72
2022/12/01 11:06:53;;;;;;;67.88;32.83;;;11.60;59.20;;;;;;5069744;28;20482;-72
2022/12/01 11:09:27;;;;;;;62.40;32.40;;;11.70;59.00;;;;;;5052450;28;20031;-72
2022/12/01 11:11:59;;;;;;;57.35;29.85;;;11.60;58.90;;;;;;5050781;28;20530;-72
2022/12/01 11:14:50;;;;;;;61.88;31.70;;;11.70;59.20;;;;;;5052420;28;20035;-72
2022/12/01 11:17:39;;;;;;;67.35;34.60;;;11.70;59.40;;;;;;5070980;28;20376;-72
2022/12/01 11:20:24;;;;;;;61.28;31.05;;;11.70;59.20;;;;;;5069802;28;20396;-71
2022/12/01 11:22:50;;;;;;;65.35;32.70;;;11.80;59.10;;;;;;5070696;28;20136;-72
2022/12/01 11:25:21;;;;;;;64.25;32.15;;;11.80;59.10;;;;;;5071843;28;20465;-72
2022/12/01 11:27:56;;;;;;;64.03;32.45;;;11.80;58.90;;;;;;5072603;28;20116;-71
2022/12/01 11:30:30;;;;;;;62.40;31.10;;;11.80;59.20;;;;;;5061956;28;20036;-71
2022/12/01 11:32:59;;;;;;;65.55;34.88;;;11.90;59.20;;;;;;5067997;28;20048;-71
2022/12/01 11:35:29;;;;;;;69.03;33.72;;;11.90;58.90;;;;;;5076198;28;20021;-71
2022/12/01 11:38:00;;;;;;;61.30;31.85;;;12.00;58.90;;;;;;5076456;28;20031;-71
2022/12/01 11:40:30;;;;;;;61.10;31.98;;;12.00;59.00;;;;;;5076209;28;20042;-71
2022/12/01 11:43:00;;;;;;;60.28;32.03;;;12.10;58.70;;;;;;5068568;28;20044;-71
2022/12/01 11:45:39;;;;;;;60.03;32.38;;;12.10;58.50;;;;;;5065475;28;20017;-72
2022/12/01 11:48:11;;;;;;;61.00;30.95;;;12.10;58.50;;;;;;5076614;28;20020;-71
2022/12/01 11:50:40;;;;;;;66.35;32.83;;;12.10;58.30;;;;;;5058517;28;20543;-71
2022/12/01 11:53:26;;;;;;;62.83;31.73;;;12.10;58.30;;;;;;5074699;28;20024;-71
2022/12/01 11:56:14;;;;;;;62.25;31.75;;;12.20;58.30;;;;;;5057784;28;20033;-71
2022/12/01 11:58:42;;;;;;;61.72;31.48;;;12.20;58.50;;;;;;5074146;28;20033;-72
2022/12/01 12:01:37;;;;;;;65.93;32.80;;;12.20;58.40;;;;;;5076326;28;20048;-71
2022/12/01 12:04:08;;;;;;;62.45;32.60;;;12.20;58.30;;;;;;5075026;28;20040;-71
2022/12/01 12:07:02;;;;;;;72.97;31.98;;;12.20;58.30;;;;;;5057479;28;20043;-72
2022/12/01 12:09:57;;;;;;;69.90;34.00;;;12.20;58.20;;;;;;5045258;28;20021;-71
2022/12/01 12:12:38;;;;;;;61.95;32.58;;;12.30;57.90;;;;;;5067536;28;20033;-71
2022/12/01 12:15:28;;;;;;;59.50;32.50;;;12.20;57.70;;;;;;5066489;28;20033;-72
2022/12/01 12:18:15;;;;;;;65.28;33.17;;;12.20;57.70;;;;;;5069914;28;20032;-72
2022/12/01 12:20:53;;;;;;;66.45;33.42;;;12.20;57.90;;;;;;5066421;28;20119;-71
2022/12/01 12:23:44;;;;;;;64.18;33.40;;;12.10;57.50;;;;;;5075905;28;20389;-72
2022/12/01 12:26:18;;;;;;;71.78;36.65;;;12.10;57.30;;;;;;5043436;28;20059;-72
2022/12/01 12:29:03;;;;;;;62.58;33.05;;;12.00;57.30;;;;;;5069523;28;20036;-72
2022/12/01 12:31:43;;;;;;;67.22;35.13;;;12.00;57.50;;;;;;5062162;28;20107;-72
2022/12/01 12:34:47;;;;;;;66.70;33.17;;;11.90;57.20;;;;;;5057831;28;20028;-72
2022/12/01 12:37:39;;;;;;;66.28;33.92;;;11.90;57.40;;;;;;5048679;28;20428;-72
2022/12/01 12:40:17;;;;;;;63.40;34.15;;;11.90;57.50;;;;;;5071561;28;20032;-72
2022/12/01 12:42:53;;;;;;;59.35;32.45;;;11.80;57.40;;;;;;5057691;28;20071;-72
2022/12/01 12:45:25;;;;;;;69.22;34.40;;;11.80;58.10;;;;;;5057172;28;20078;-72
2022/12/01 12:48:08;;;;;;;65.22;32.90;;;11.80;57.50;;;;;;5075559;28;20020;-72
2022/12/01 12:51:01;;;;;;;67.78;34.95;;;11.70;57.30;;;;;;5075569;28;20036;-71
2022/12/01 12:53:52;;;;;;;63.92;33.95;;;11.70;57.40;;;;;;5075577;28;20032;-72
2022/12/01 12:56:22;;;;;;;69.38;33.90;;;11.70;57.30;;;;;;5062317;28;20098;-72
2022/12/01 12:59:01;;;;;;;64.95;34.08;;;11.70;57.10;;;;;;5037248;28;20052;-72
2022/12/01 13:01:41;;;;;;;69.25;36.28;;;11.60;57.10;;;;;;5055213;28;20369;-72
2022/12/01 13:04:23;;;;;;;70.15;34.92;;;11.50;57.00;;;;;;5055390;28;20075;-72
2022/12/01 13:07:00;;;;;;;66.25;33.30;;;11.50;57.00;;;;;;5055325;28;20021;-72
2022/12/01 13:09:37;;;;;;;66.60;34.10;;;11.50;57.10;;;;;;5055238;28;20025;-72